Arctic Bay — 9HTD8 — position and weather

sailwx.info

Track history (hours):
 
Tides and Currents Weather Stations Pressure Air Temp Water Temp Dewpoint Dewpoint Depression Visibility Wind Speed Wind Dir Waves Ship Positions

Arctic Bay

Last reported at 2017-Jan-01 17:27 UTC. Time now 2017-Jan-17 02:49 UTC.
Position N 40°25' W 073°36'.
Warning: this ship's position is 15 days out of date.

Length 182 m; draft 11.3 m.

Type: Ship. MMSI: 256396000.

Date/timePositionNaut miles runAvg speedWind from/ knotsBaromVisibWave heightAir tempDewpointWater temp
2017-Jan-01 17:27N 40°25' W 073°36'9 9.6
2017-Jan-01 16:30N 40°27' W 073°47'9 9.0
2017-Jan-01 15:33N 40°29' W 073°58'  
2016-Dec-29 22:33N 40°29' W 074°06'9 8.8
2016-Dec-29 21:33N 40°27' W 073°56'5 5.3
2016-Dec-29 20:33N 40°31' W 073°60'7 7.4
2016-Dec-29 19:32N 40°38' W 074°04'0 0.0
2016-Dec-29 18:32N 40°38' W 074°04'0 0.0
2016-Dec-29 17:32N 40°38' W 074°04'0 0.0
2016-Dec-29 16:32N 40°38' W 074°04'0 0.2
2016-Dec-29 15:32N 40°38' W 074°04'0 0.1
2016-Dec-29 14:32N 40°38' W 074°04'0 0.0
2016-Dec-29 13:32N 40°38' W 074°04'0 0.0
2016-Dec-29 12:32N 40°38' W 074°04'0 0.0
2016-Dec-29 11:32N 40°38' W 074°04'0 0.0
2016-Dec-29 10:32N 40°38' W 074°04'0 0.2
2016-Dec-29 09:32N 40°38' W 074°04'0 0.0
2016-Dec-29 08:29N 40°38' W 074°04'0 0.0
2016-Dec-29 07:32N 40°38' W 074°04'0 0.0
2016-Dec-29 06:32N 40°38' W 074°04'0 0.0
2016-Dec-29 05:32N 40°38' W 074°04'0 0.0
2016-Dec-29 04:32N 40°38' W 074°04'0 0.0
2016-Dec-29 03:32N 40°38' W 074°04'0 0.2
2016-Dec-29 02:32N 40°38' W 074°04'0 0.1
2016-Dec-29 01:32N 40°38' W 074°04'0 0.0
2016-Dec-29 00:32N 40°38' W 074°04'0 0.0
2016-Dec-28 23:32N 40°38' W 074°04'0 0.1
2016-Dec-28 22:32N 40°38' W 074°04'0 0.1
2016-Dec-28 21:29N 40°38' W 074°04'0 0.1
2016-Dec-28 20:32N 40°38' W 074°04'0 0.0
2016-Dec-28 19:32N 40°38' W 074°04'3 2.5
2016-Dec-28 18:33N 40°36' W 074°02'9 9.1
2016-Dec-28 17:33N 40°29' W 073°54'7 7.3
2016-Dec-28 16:33N 40°27' W 073°45'6 0.7
2016-Dec-28 08:30N 40°30' W 073°39'0 0.0
2016-Dec-28 07:33N 40°30' W 073°39'0 0.0
2016-Dec-26 17:33N 40°31' W 073°39'0 0.0
2016-Dec-26 09:30N 40°30' W 073°39'0 0.0
2016-Dec-26 08:21N 40°30' W 073°39'0 0.0
2016-Dec-26 07:12N 40°30' W 073°39'0 0.0
2016-Dec-26 03:15N 40°30' W 073°39'0 0.0
2016-Dec-26 02:33N 40°30' W 073°39'0 0.0
2016-Dec-25 20:33N 40°30' W 073°39'0 0.0
2016-Dec-25 13:18N 40°30' W 073°39'0 0.0
2016-Dec-24 17:15N 40°30' W 073°39'1 1.7
2016-Dec-24 16:33N 40°30' W 073°38'  
Track history (hours):
 
Tides and Currents Weather Stations Pressure Air Temp Water Temp Dewpoint Dewpoint Depression Visibility Wind Speed Wind Dir Waves Ship Positions

Arctic Bay

Last reported at 2017-Jan-01 17:27 UTC. Time now 2017-Jan-17 02:49 UTC.
Position N 40°25' W 073°36'.
Warning: this ship's position is 15 days out of date.

Length 182 m; draft 11.3 m.

Type: Ship. MMSI: 256396000.

Date/timePositionNaut miles runAvg speedWind from/ knotsBaromVisibWave heightAir tempDewpointWater temp
2017-Jan-01 17:27N 40°25' W 073°36'9 9.6
2017-Jan-01 16:30N 40°27' W 073°47'9 9.0
2017-Jan-01 15:33N 40°29' W 073°58'  
2016-Dec-29 22:33N 40°29' W 074°06'9 8.8
2016-Dec-29 21:33N 40°27' W 073°56'5 5.3
2016-Dec-29 20:33N 40°31' W 073°60'7 7.4
2016-Dec-29 19:32N 40°38' W 074°04'0 0.0
2016-Dec-29 18:32N 40°38' W 074°04'0 0.0
2016-Dec-29 17:32N 40°38' W 074°04'0 0.0
2016-Dec-29 16:32N 40°38' W 074°04'0 0.2
2016-Dec-29 15:32N 40°38' W 074°04'0 0.1
2016-Dec-29 14:32N 40°38' W 074°04'0 0.0
2016-Dec-29 13:32N 40°38' W 074°04'0 0.0
2016-Dec-29 12:32N 40°38' W 074°04'0 0.0
2016-Dec-29 11:32N 40°38' W 074°04'0 0.0
2016-Dec-29 10:32N 40°38' W 074°04'0 0.2
2016-Dec-29 09:32N 40°38' W 074°04'0 0.0
2016-Dec-29 08:29N 40°38' W 074°04'0 0.0
2016-Dec-29 07:32N 40°38' W 074°04'0 0.0
2016-Dec-29 06:32N 40°38' W 074°04'0 0.0
2016-Dec-29 05:32N 40°38' W 074°04'0 0.0
2016-Dec-29 04:32N 40°38' W 074°04'0 0.0
2016-Dec-29 03:32N 40°38' W 074°04'0 0.2
2016-Dec-29 02:32N 40°38' W 074°04'0 0.1
2016-Dec-29 01:32N 40°38' W 074°04'0 0.0
2016-Dec-29 00:32N 40°38' W 074°04'0 0.0
2016-Dec-28 23:32N 40°38' W 074°04'0 0.1
2016-Dec-28 22:32N 40°38' W 074°04'0 0.1
2016-Dec-28 21:29N 40°38' W 074°04'0 0.1
2016-Dec-28 20:32N 40°38' W 074°04'0 0.0
2016-Dec-28 19:32N 40°38' W 074°04'3 2.5
2016-Dec-28 18:33N 40°36' W 074°02'9 9.1
2016-Dec-28 17:33N 40°29' W 073°54'7 7.3
2016-Dec-28 16:33N 40°27' W 073°45'6 0.7
2016-Dec-28 08:30N 40°30' W 073°39'0 0.0
2016-Dec-28 07:33N 40°30' W 073°39'0 0.0
2016-Dec-26 17:33N 40°31' W 073°39'0 0.0
2016-Dec-26 09:30N 40°30' W 073°39'0 0.0
2016-Dec-26 08:21N 40°30' W 073°39'0 0.0
2016-Dec-26 07:12N 40°30' W 073°39'0 0.0
2016-Dec-26 03:15N 40°30' W 073°39'0 0.0
2016-Dec-26 02:33N 40°30' W 073°39'0 0.0
2016-Dec-25 20:33N 40°30' W 073°39'0 0.0
2016-Dec-25 13:18N 40°30' W 073°39'0 0.0
2016-Dec-24 17:15N 40°30' W 073°39'1 1.7
2016-Dec-24 16:33N 40°30' W 073°38'  

Dump ship's entire track history